sensor_id;sensor_type;location;lat;lon;timestamp;P1;durP1;ratioP1;P2;durP2;ratioP2
75340;SDS011;64931;47.562;18.920;2022-11-23T00:02:01;14.80;;;7.20;;
75340;SDS011;64931;47.562;18.920;2022-11-23T00:04:27;14.30;;;7.20;;
75340;SDS011;64931;47.562;18.920;2022-11-23T00:06:52;12.90;;;7.00;;
75340;SDS011;64931;47.562;18.920;2022-11-23T00:09:17;12.90;;;6.80;;
75340;SDS011;64931;47.562;18.920;2022-11-23T00:11:43;16.90;;;9.50;;
75340;SDS011;64931;47.562;18.920;2022-11-23T00:14:09;12.60;;;7.70;;
75340;SDS011;64931;47.562;18.920;2022-11-23T00:16:34;14.70;;;8.40;;
75340;SDS011;64931;47.562;18.920;2022-11-23T00:19:00;11.50;;;6.50;;
75340;SDS011;64931;47.562;18.920;2022-11-23T00:21:27;11.90;;;7.40;;
75340;SDS011;64931;47.562;18.920;2022-11-23T00:23:54;11.10;;;6.30;;
75340;SDS011;64931;47.562;18.920;2022-11-23T00:26:20;14.70;;;7.20;;
75340;SDS011;64931;47.562;18.920;2022-11-23T00:28:45;14.30;;;8.00;;
75340;SDS011;64931;47.562;18.920;2022-11-23T00:31:12;12.90;;;7.40;;
75340;SDS011;64931;47.562;18.920;2022-11-23T00:33:39;15.90;;;8.40;;
75340;SDS011;64931;47.562;18.920;2022-11-23T00:36:12;13.50;;;7.00;;
75340;SDS011;64931;47.562;18.920;2022-11-23T00:38:39;13.50;;;7.70;;
75340;SDS011;64931;47.562;18.920;2022-11-23T00:41:06;15.00;;;8.30;;
75340;SDS011;64931;47.562;18.920;2022-11-23T00:46:12;11.90;;;6.30;;
75340;SDS011;64931;47.562;18.920;2022-11-23T00:48:42;12.00;;;6.60;;
75340;SDS011;64931;47.562;18.920;2022-11-23T00:51:10;16.80;;;9.20;;
75340;SDS011;64931;47.562;18.920;2022-11-23T00:53:37;12.40;;;6.90;;
75340;SDS011;64931;47.562;18.920;2022-11-23T00:56:03;12.80;;;7.40;;
75340;SDS011;64931;47.562;18.920;2022-11-23T00:58:28;13.10;;;7.30;;
75340;SDS011;64931;47.562;18.920;2022-11-23T01:03:34;13.40;;;7.00;;
75340;SDS011;64931;47.562;18.920;2022-11-23T01:06:02;14.00;;;6.90;;
75340;SDS011;64931;47.562;18.920;2022-11-23T01:08:29;15.40;;;8.80;;
75340;SDS011;64931;47.562;18.920;2022-11-23T01:10:57;12.80;;;6.70;;
75340;SDS011;64931;47.562;18.920;2022-11-23T01:13:27;12.80;;;7.00;;
75340;SDS011;64931;47.562;18.920;2022-11-23T01:15:52;14.90;;;7.70;;
75340;SDS011;64931;47.562;18.920;2022-11-23T01:18:18;12.90;;;7.00;;
75340;SDS011;64931;47.562;18.920;2022-11-23T01:20:43;13.50;;;7.00;;
75340;SDS011;64931;47.562;18.920;2022-11-23T01:23:09;13.20;;;7.30;;
75340;SDS011;64931;47.562;18.920;2022-11-23T01:25:35;17.40;;;8.90;;
75340;SDS011;64931;47.562;18.920;2022-11-23T01:28:00;14.50;;;7.00;;
75340;SDS011;64931;47.562;18.920;2022-11-23T01:30:26;14.40;;;8.40;;
75340;SDS011;64931;47.562;18.920;2022-11-23T01:32:52;15.60;;;8.40;;
75340;SDS011;64931;47.562;18.920;2022-11-23T01:35:17;13.60;;;7.70;;
75340;SDS011;64931;47.562;18.920;2022-11-23T01:37:43;12.30;;;6.70;;
75340;SDS011;64931;47.562;18.920;2022-11-23T01:40:08;13.30;;;6.80;;
75340;SDS011;64931;47.562;18.920;2022-11-23T01:42:54;11.70;;;6.10;;
75340;SDS011;64931;47.562;18.920;2022-11-23T01:45:34;15.30;;;7.90;;
75340;SDS011;64931;47.562;18.920;2022-11-23T01:48:05;13.80;;;7.90;;
75340;SDS011;64931;47.562;18.920;2022-11-23T01:50:38;14.40;;;7.70;;
75340;SDS011;64931;47.562;18.920;2022-11-23T01:53:04;13.60;;;6.70;;
75340;SDS011;64931;47.562;18.920;2022-11-23T01:55:31;13.80;;;7.30;;
75340;SDS011;64931;47.562;18.920;2022-11-23T01:57:57;12.00;;;6.90;;
75340;SDS011;64931;47.562;18.920;2022-11-23T02:00:23;11.60;;;6.70;;
75340;SDS011;64931;47.562;18.920;2022-11-23T02:02:55;15.00;;;8.50;;
75340;SDS011;64931;47.562;18.920;2022-11-23T02:05:23;11.80;;;6.60;;
75340;SDS011;64931;47.562;18.920;2022-11-23T02:07:52;12.60;;;7.10;;
75340;SDS011;64931;47.562;18.920;2022-11-23T02:10:17;11.50;;;7.10;;
75340;SDS011;64931;47.562;18.920;2022-11-23T02:12:43;12.90;;;7.90;;
75340;SDS011;64931;47.562;18.920;2022-11-23T02:15:09;15.90;;;9.00;;
75340;SDS011;64931;47.562;18.920;2022-11-23T02:17:34;13.40;;;7.00;;
75340;SDS011;64931;47.562;18.920;2022-11-23T02:25:26;11.30;;;5.70;;
75340;SDS011;64931;47.562;18.920;2022-11-23T02:28:02;10.40;;;6.00;;
75340;SDS011;64931;47.562;18.920;2022-11-23T02:30:28;12.70;;;7.80;;
75340;SDS011;64931;47.562;18.920;2022-11-23T02:32:54;13.00;;;6.70;;
75340;SDS011;64931;47.562;18.920;2022-11-23T02:35:20;12.20;;;6.80;;
75340;SDS011;64931;47.562;18.920;2022-11-23T02:37:45;10.20;;;5.80;;
75340;SDS011;64931;47.562;18.920;2022-11-23T02:40:16;11.30;;;6.60;;
75340;SDS011;64931;47.562;18.920;2022-11-23T02:42:50;14.20;;;7.80;;
75340;SDS011;64931;47.562;18.920;2022-11-23T02:48:20;12.00;;;6.00;;
75340;SDS011;64931;47.562;18.920;2022-11-23T02:50:46;13.00;;;6.00;;
75340;SDS011;64931;47.562;18.920;2022-11-23T02:53:11;12.50;;;6.70;;
75340;SDS011;64931;47.562;18.920;2022-11-23T02:55:37;12.70;;;6.90;;
75340;SDS011;64931;47.562;18.920;2022-11-23T02:58:03;11.80;;;6.30;;
75340;SDS011;64931;47.562;18.920;2022-11-23T03:00:29;10.90;;;6.30;;
75340;SDS011;64931;47.562;18.920;2022-11-23T03:02:55;11.10;;;5.80;;
75340;SDS011;64931;47.562;18.920;2022-11-23T03:05:23;10.30;;;5.90;;
75340;SDS011;64931;47.562;18.920;2022-11-23T03:07:48;12.50;;;6.70;;
75340;SDS011;64931;47.562;18.920;2022-11-23T03:10:13;9.10;;;5.50;;
75340;SDS011;64931;47.562;18.920;2022-11-23T03:12:39;11.70;;;6.50;;
75340;SDS011;64931;47.562;18.920;2022-11-23T03:15:04;12.70;;;6.30;;
75340;SDS011;64931;47.562;18.920;2022-11-23T03:17:30;11.60;;;6.50;;
75340;SDS011;64931;47.562;18.920;2022-11-23T03:19:56;13.20;;;7.90;;
75340;SDS011;64931;47.562;18.920;2022-11-23T03:22:21;11.00;;;6.30;;
75340;SDS011;64931;47.562;18.920;2022-11-23T03:24:47;10.30;;;5.80;;
75340;SDS011;64931;47.562;18.920;2022-11-23T03:27:12;12.50;;;7.50;;
75340;SDS011;64931;47.562;18.920;2022-11-23T03:29:38;10.70;;;6.50;;
75340;SDS011;64931;47.562;18.920;2022-11-23T03:32:03;10.30;;;5.90;;
75340;SDS011;64931;47.562;18.920;2022-11-23T03:34:29;10.90;;;5.10;;
75340;SDS011;64931;47.562;18.920;2022-11-23T03:36:54;10.80;;;5.40;;
75340;SDS011;64931;47.562;18.920;2022-11-23T03:39:19;11.90;;;6.30;;
75340;SDS011;64931;47.562;18.920;2022-11-23T03:41:45;13.90;;;7.50;;
75340;SDS011;64931;47.562;18.920;2022-11-23T03:44:11;12.40;;;6.60;;
75340;SDS011;64931;47.562;18.920;2022-11-23T03:46:36;12.20;;;6.30;;
75340;SDS011;64931;47.562;18.920;2022-11-23T03:49:02;10.40;;;5.70;;
75340;SDS011;64931;47.562;18.920;2022-11-23T03:51:27;12.00;;;6.10;;
75340;SDS011;64931;47.562;18.920;2022-11-23T03:53:52;12.50;;;6.90;;
75340;SDS011;64931;47.562;18.920;2022-11-23T03:56:18;9.20;;;4.50;;
75340;SDS011;64931;47.562;18.920;2022-11-23T03:58:44;11.90;;;6.20;;
75340;SDS011;64931;47.562;18.920;2022-11-23T04:01:09;13.70;;;7.20;;
75340;SDS011;64931;47.562;18.920;2022-11-23T04:03:35;10.50;;;5.90;;
75340;SDS011;64931;47.562;18.920;2022-11-23T04:06:00;11.20;;;5.80;;
75340;SDS011;64931;47.562;18.920;2022-11-23T04:08:26;11.20;;;6.30;;
75340;SDS011;64931;47.562;18.920;2022-11-23T04:10:51;13.20;;;7.20;;
75340;SDS011;64931;47.562;18.920;2022-11-23T04:13:22;10.10;;;5.30;;
75340;SDS011;64931;47.562;18.920;2022-11-23T04:15:47;12.00;;;6.20;;
75340;SDS011;64931;47.562;18.920;2022-11-23T04:18:13;12.00;;;6.40;;
75340;SDS011;64931;47.562;18.920;2022-11-23T04:20:38;11.30;;;5.40;;
75340;SDS011;64931;47.562;18.920;2022-11-23T04:23:04;11.30;;;6.20;;
75340;SDS011;64931;47.562;18.920;2022-11-23T04:25:29;10.40;;;5.30;;
75340;SDS011;64931;47.562;18.920;2022-11-23T04:27:54;9.60;;;5.30;;
75340;SDS011;64931;47.562;18.920;2022-11-23T04:30:20;8.30;;;4.80;;
75340;SDS011;64931;47.562;18.920;2022-11-23T04:32:45;11.80;;;6.30;;
75340;SDS011;64931;47.562;18.920;2022-11-23T04:35:11;10.90;;;6.10;;
75340;SDS011;64931;47.562;18.920;2022-11-23T04:37:36;7.90;;;4.50;;
75340;SDS011;64931;47.562;18.920;2022-11-23T04:40:02;11.20;;;5.90;;
75340;SDS011;64931;47.562;18.920;2022-11-23T04:42:27;9.60;;;5.30;;
75340;SDS011;64931;47.562;18.920;2022-11-23T04:44:53;9.90;;;5.50;;
75340;SDS011;64931;47.562;18.920;2022-11-23T04:47:19;9.40;;;4.80;;
75340;SDS011;64931;47.562;18.920;2022-11-23T04:49:44;12.70;;;6.50;;
75340;SDS011;64931;47.562;18.920;2022-11-23T04:52:09;10.80;;;6.00;;
75340;SDS011;64931;47.562;18.920;2022-11-23T04:54:35;11.30;;;5.40;;
75340;SDS011;64931;47.562;18.920;2022-11-23T04:57:00;10.30;;;5.20;;
75340;SDS011;64931;47.562;18.920;2022-11-23T04:59:26;11.80;;;7.40;;
75340;SDS011;64931;47.562;18.920;2022-11-23T05:01:51;13.00;;;8.00;;
75340;SDS011;64931;47.562;18.920;2022-11-23T05:04:17;10.10;;;6.40;;
75340;SDS011;64931;47.562;18.920;2022-11-23T05:06:43;10.20;;;6.10;;
75340;SDS011;64931;47.562;18.920;2022-11-23T05:09:09;23.80;;;12.40;;
75340;SDS011;64931;47.562;18.920;2022-11-23T05:11:35;16.00;;;8.40;;
75340;SDS011;64931;47.562;18.920;2022-11-23T05:14:00;11.90;;;5.90;;
75340;SDS011;64931;47.562;18.920;2022-11-23T05:16:26;11.70;;;5.60;;
75340;SDS011;64931;47.562;18.920;2022-11-23T05:18:51;10.60;;;5.40;;
75340;SDS011;64931;47.562;18.920;2022-11-23T05:21:17;48.40;;;24.70;;
75340;SDS011;64931;47.562;18.920;2022-11-23T05:23:42;13.20;;;6.80;;
75340;SDS011;64931;47.562;18.920;2022-11-23T05:26:07;12.80;;;6.80;;
75340;SDS011;64931;47.562;18.920;2022-11-23T05:28:33;10.20;;;5.70;;
75340;SDS011;64931;47.562;18.920;2022-11-23T05:30:58;11.10;;;5.30;;
75340;SDS011;64931;47.562;18.920;2022-11-23T05:33:24;10.60;;;5.60;;
75340;SDS011;64931;47.562;18.920;2022-11-23T05:36:10;10.70;;;4.60;;
75340;SDS011;64931;47.562;18.920;2022-11-23T05:38:38;8.60;;;4.40;;
75340;SDS011;64931;47.562;18.920;2022-11-23T05:41:05;9.90;;;5.10;;
75340;SDS011;64931;47.562;18.920;2022-11-23T05:43:31;10.00;;;5.80;;
75340;SDS011;64931;47.562;18.920;2022-11-23T05:46:00;8.40;;;4.90;;
75340;SDS011;64931;47.562;18.920;2022-11-23T05:48:26;9.20;;;5.10;;
75340;SDS011;64931;47.562;18.920;2022-11-23T05:50:51;9.40;;;5.70;;
75340;SDS011;64931;47.562;18.920;2022-11-23T05:53:17;9.60;;;5.30;;
75340;SDS011;64931;47.562;18.920;2022-11-23T05:55:42;10.50;;;4.60;;
75340;SDS011;64931;47.562;18.920;2022-11-23T05:58:08;10.60;;;5.30;;
75340;SDS011;64931;47.562;18.920;2022-11-23T06:00:33;9.40;;;5.20;;
75340;SDS011;64931;47.562;18.920;2022-11-23T06:02:59;7.60;;;4.30;;
75340;SDS011;64931;47.562;18.920;2022-11-23T06:05:25;9.90;;;5.70;;
75340;SDS011;64931;47.562;18.920;2022-11-23T06:07:52;8.50;;;4.40;;
75340;SDS011;64931;47.562;18.920;2022-11-23T06:10:18;7.40;;;3.50;;
75340;SDS011;64931;47.562;18.920;2022-11-23T06:12:43;8.60;;;4.30;;
75340;SDS011;64931;47.562;18.920;2022-11-23T06:15:10;9.00;;;5.00;;
75340;SDS011;64931;47.562;18.920;2022-11-23T06:17:36;8.50;;;4.10;;
75340;SDS011;64931;47.562;18.920;2022-11-23T06:20:01;9.00;;;4.30;;
75340;SDS011;64931;47.562;18.920;2022-11-23T06:22:27;8.00;;;4.20;;
75340;SDS011;64931;47.562;18.920;2022-11-23T06:24:52;8.40;;;5.00;;
75340;SDS011;64931;47.562;18.920;2022-11-23T06:27:18;12.20;;;5.70;;
75340;SDS011;64931;47.562;18.920;2022-11-23T06:29:43;11.60;;;6.00;;
75340;SDS011;64931;47.562;18.920;2022-11-23T06:32:08;7.00;;;3.60;;
75340;SDS011;64931;47.562;18.920;2022-11-23T06:34:34;8.80;;;3.90;;
75340;SDS011;64931;47.562;18.920;2022-11-23T06:36:59;8.20;;;3.60;;
75340;SDS011;64931;47.562;18.920;2022-11-23T06:39:25;9.90;;;4.20;;
75340;SDS011;64931;47.562;18.920;2022-11-23T06:41:50;6.80;;;3.60;;
75340;SDS011;64931;47.562;18.920;2022-11-23T06:44:16;6.80;;;3.80;;
75340;SDS011;64931;47.562;18.920;2022-11-23T06:46:42;8.40;;;4.00;;
75340;SDS011;64931;47.562;18.920;2022-11-23T06:49:07;7.30;;;4.10;;
75340;SDS011;64931;47.562;18.920;2022-11-23T06:51:33;6.40;;;3.70;;
75340;SDS011;64931;47.562;18.920;2022-11-23T06:53:58;6.60;;;3.40;;
75340;SDS011;64931;47.562;18.920;2022-11-23T06:56:23;7.50;;;3.60;;
75340;SDS011;64931;47.562;18.920;2022-11-23T06:58:49;7.80;;;3.90;;
75340;SDS011;64931;47.562;18.920;2022-11-23T07:01:14;7.30;;;3.90;;
75340;SDS011;64931;47.562;18.920;2022-11-23T07:03:40;7.10;;;3.90;;
75340;SDS011;64931;47.562;18.920;2022-11-23T07:06:06;8.10;;;4.20;;
75340;SDS011;64931;47.562;18.920;2022-11-23T07:08:33;8.90;;;4.40;;
75340;SDS011;64931;47.562;18.920;2022-11-23T07:11:00;7.40;;;3.50;;
75340;SDS011;64931;47.562;18.920;2022-11-23T07:13:30;7.50;;;3.80;;
75340;SDS011;64931;47.562;18.920;2022-11-23T07:15:57;7.40;;;3.90;;
75340;SDS011;64931;47.562;18.920;2022-11-23T07:18:23;6.70;;;2.90;;
75340;SDS011;64931;47.562;18.920;2022-11-23T07:20:49;8.70;;;4.30;;
75340;SDS011;64931;47.562;18.920;2022-11-23T07:23:14;7.80;;;3.60;;
75340;SDS011;64931;47.562;18.920;2022-11-23T07:25:40;11.70;;;6.50;;
75340;SDS011;64931;47.562;18.920;2022-11-23T07:28:06;7.40;;;4.30;;
75340;SDS011;64931;47.562;18.920;2022-11-23T07:30:32;7.50;;;4.20;;
75340;SDS011;64931;47.562;18.920;2022-11-23T07:33:02;8.40;;;4.60;;
75340;SDS011;64931;47.562;18.920;2022-11-23T07:35:29;8.10;;;3.80;;
75340;SDS011;64931;47.562;18.920;2022-11-23T07:37:56;8.00;;;4.90;;
75340;SDS011;64931;47.562;18.920;2022-11-23T07:40:22;10.40;;;5.00;;
75340;SDS011;64931;47.562;18.920;2022-11-23T07:42:48;7.40;;;4.00;;
75340;SDS011;64931;47.562;18.920;2022-11-23T07:47:41;7.10;;;4.00;;
75340;SDS011;64931;47.562;18.920;2022-11-23T07:50:08;9.30;;;4.60;;
75340;SDS011;64931;47.562;18.920;2022-11-23T07:52:35;7.40;;;3.50;;
75340;SDS011;64931;47.562;18.920;2022-11-23T07:55:01;6.30;;;3.20;;
75340;SDS011;64931;47.562;18.920;2022-11-23T07:57:26;8.40;;;3.80;;
75340;SDS011;64931;47.562;18.920;2022-11-23T07:59:52;6.30;;;3.30;;
75340;SDS011;64931;47.562;18.920;2022-11-23T08:02:18;6.50;;;3.80;;
75340;SDS011;64931;47.562;18.920;2022-11-23T08:04:43;7.60;;;3.80;;
75340;SDS011;64931;47.562;18.920;2022-11-23T08:07:09;8.30;;;4.50;;
75340;SDS011;64931;47.562;18.920;2022-11-23T08:09:34;7.90;;;3.50;;
75340;SDS011;64931;47.562;18.920;2022-11-23T08:12:00;7.00;;;4.00;;
75340;SDS011;64931;47.562;18.920;2022-11-23T08:14:25;6.90;;;3.50;;
75340;SDS011;64931;47.562;18.920;2022-11-23T08:16:51;7.40;;;3.80;;
75340;SDS011;64931;47.562;18.920;2022-11-23T08:19:16;8.60;;;3.40;;
75340;SDS011;64931;47.562;18.920;2022-11-23T08:21:42;7.70;;;4.60;;
75340;SDS011;64931;47.562;18.920;2022-11-23T08:24:08;6.50;;;3.20;;
75340;SDS011;64931;47.562;18.920;2022-11-23T08:26:33;7.00;;;3.70;;
75340;SDS011;64931;47.562;18.920;2022-11-23T08:28:59;7.00;;;3.60;;
75340;SDS011;64931;47.562;18.920;2022-11-23T08:31:25;6.80;;;3.50;;
75340;SDS011;64931;47.562;18.920;2022-11-23T08:33:50;5.80;;;3.20;;
75340;SDS011;64931;47.562;18.920;2022-11-23T08:36:15;5.90;;;2.80;;
75340;SDS011;64931;47.562;18.920;2022-11-23T08:38:41;6.20;;;3.50;;
75340;SDS011;64931;47.562;18.920;2022-11-23T08:41:06;7.90;;;4.20;;
75340;SDS011;64931;47.562;18.920;2022-11-23T08:43:32;7.20;;;3.80;;
75340;SDS011;64931;47.562;18.920;2022-11-23T08:45:59;7.10;;;3.70;;
75340;SDS011;64931;47.562;18.920;2022-11-23T08:48:25;7.00;;;4.00;;
75340;SDS011;64931;47.562;18.920;2022-11-23T08:50:51;6.00;;;2.90;;
75340;SDS011;64931;47.562;18.920;2022-11-23T08:53:17;5.40;;;2.80;;
75340;SDS011;64931;47.562;18.920;2022-11-23T08:55:42;8.20;;;4.60;;
75340;SDS011;64931;47.562;18.920;2022-11-23T08:58:08;6.80;;;3.80;;
75340;SDS011;64931;47.562;18.920;2022-11-23T09:00:34;6.40;;;3.20;;
75340;SDS011;64931;47.562;18.920;2022-11-23T09:02:59;5.70;;;3.20;;
75340;SDS011;64931;47.562;18.920;2022-11-23T09:05:26;6.60;;;3.70;;
75340;SDS011;64931;47.562;18.920;2022-11-23T09:07:53;7.40;;;3.50;;
75340;SDS011;64931;47.562;18.920;2022-11-23T09:10:19;6.20;;;3.50;;
75340;SDS011;64931;47.562;18.920;2022-11-23T09:12:48;6.20;;;3.50;;
75340;SDS011;64931;47.562;18.920;2022-11-23T09:17:42;5.90;;;3.20;;
75340;SDS011;64931;47.562;18.920;2022-11-23T09:20:07;7.20;;;3.80;;
75340;SDS011;64931;47.562;18.920;2022-11-23T09:22:34;7.20;;;3.70;;
75340;SDS011;64931;47.562;18.920;2022-11-23T09:25:00;6.40;;;3.30;;
75340;SDS011;64931;47.562;18.920;2022-11-23T09:27:25;6.50;;;3.60;;
75340;SDS011;64931;47.562;18.920;2022-11-23T09:29:51;5.80;;;2.80;;
75340;SDS011;64931;47.562;18.920;2022-11-23T09:32:16;4.80;;;2.90;;
75340;SDS011;64931;47.562;18.920;2022-11-23T09:34:42;5.50;;;3.10;;
75340;SDS011;64931;47.562;18.920;2022-11-23T09:37:09;8.20;;;4.20;;
75340;SDS011;64931;47.562;18.920;2022-11-23T09:39:35;5.40;;;2.90;;
75340;SDS011;64931;47.562;18.920;2022-11-23T09:44:42;5.30;;;2.70;;
75340;SDS011;64931;47.562;18.920;2022-11-23T09:50:14;5.40;;;3.00;;
75340;SDS011;64931;47.562;18.920;2022-11-23T09:52:47;6.80;;;3.20;;
75340;SDS011;64931;47.562;18.920;2022-11-23T09:55:16;5.10;;;2.60;;
75340;SDS011;64931;47.562;18.920;2022-11-23T09:57:46;5.90;;;2.70;;
75340;SDS011;64931;47.562;18.920;2022-11-23T10:00:19;6.60;;;3.70;;
75340;SDS011;64931;47.562;18.920;2022-11-23T10:02:46;5.40;;;3.10;;
75340;SDS011;64931;47.562;18.920;2022-11-23T10:05:22;7.00;;;3.80;;
75340;SDS011;64931;47.562;18.920;2022-11-23T10:10:40;6.70;;;3.00;;
75340;SDS011;64931;47.562;18.920;2022-11-23T10:19:21;5.40;;;2.80;;
75340;SDS011;64931;47.562;18.920;2022-11-23T10:22:07;5.70;;;3.40;;
75340;SDS011;64931;47.562;18.920;2022-11-23T10:27:13;6.30;;;3.40;;
75340;SDS011;64931;47.562;18.920;2022-11-23T10:29:42;5.30;;;3.30;;
75340;SDS011;64931;47.562;18.920;2022-11-23T10:32:29;6.20;;;3.60;;
75340;SDS011;64931;47.562;18.920;2022-11-23T11:52:41;9.20;;;4.50;;
75340;SDS011;64931;47.562;18.920;2022-11-23T12:05:47;7.50;;;4.00;;
75340;SDS011;64931;47.562;18.920;2022-11-23T14:10:20;6.00;;;3.20;;
75340;SDS011;64931;47.562;18.920;2022-11-23T14:37:32;5.70;;;3.20;;
75340;SDS011;64931;47.562;18.920;2022-11-23T14:48:36;7.20;;;4.20;;
75340;SDS011;64931;47.562;18.920;2022-11-23T14:50:58;7.90;;;4.80;;
75340;SDS011;64931;47.562;18.920;2022-11-23T14:53:38;7.50;;;4.20;;
75340;SDS011;64931;47.562;18.920;2022-11-23T14:56:05;8.20;;;3.90;;
75340;SDS011;64931;47.562;18.920;2022-11-23T15:01:57;7.50;;;3.40;;
75340;SDS011;64931;47.562;18.920;2022-11-23T15:05:03;13.70;;;8.90;;
75340;SDS011;64931;47.562;18.920;2022-11-23T15:11:04;6.30;;;3.40;;
75340;SDS011;64931;47.562;18.920;2022-11-23T15:13:43;6.20;;;3.50;;
75340;SDS011;64931;47.562;18.920;2022-11-23T15:16:24;12.10;;;7.80;;
75340;SDS011;64931;47.562;18.920;2022-11-23T15:18:50;29.40;;;20.70;;
75340;SDS011;64931;47.562;18.920;2022-11-23T15:21:23;14.20;;;8.80;;
75340;SDS011;64931;47.562;18.920;2022-11-23T15:23:50;12.60;;;7.10;;
75340;SDS011;64931;47.562;18.920;2022-11-23T15:26:28;10.00;;;5.10;;
75340;SDS011;64931;47.562;18.920;2022-11-23T15:28:54;7.90;;;4.30;;
75340;SDS011;64931;47.562;18.920;2022-11-23T15:34:11;10.50;;;5.90;;
75340;SDS011;64931;47.562;18.920;2022-11-23T15:36:42;12.20;;;6.30;;
75340;SDS011;64931;47.562;18.920;2022-11-23T15:39:15;11.50;;;6.90;;
75340;SDS011;64931;47.562;18.920;2022-11-23T15:42:13;6.70;;;3.90;;
75340;SDS011;64931;47.562;18.920;2022-11-23T15:44:40;16.60;;;9.90;;
75340;SDS011;64931;47.562;18.920;2022-11-23T15:47:09;28.30;;;16.30;;
75340;SDS011;64931;47.562;18.920;2022-11-23T15:49:40;15.40;;;9.10;;
75340;SDS011;64931;47.562;18.920;2022-11-23T15:52:12;10.50;;;6.60;;
75340;SDS011;64931;47.562;18.920;2022-11-23T15:54:44;19.40;;;12.70;;
75340;SDS011;64931;47.562;18.920;2022-11-23T15:57:14;14.60;;;9.60;;
75340;SDS011;64931;47.562;18.920;2022-11-23T15:59:46;16.70;;;9.70;;
75340;SDS011;64931;47.562;18.920;2022-11-23T16:02:27;15.90;;;9.90;;
75340;SDS011;64931;47.562;18.920;2022-11-23T16:08:00;10.40;;;6.50;;
75340;SDS011;64931;47.562;18.920;2022-11-23T16:17:36;6.30;;;4.00;;
75340;SDS011;64931;47.562;18.920;2022-11-23T16:20:29;6.70;;;3.90;;
75340;SDS011;64931;47.562;18.920;2022-11-23T16:23:21;6.80;;;4.00;;
75340;SDS011;64931;47.562;18.920;2022-11-23T16:26:04;6.80;;;3.50;;
75340;SDS011;64931;47.562;18.920;2022-11-23T16:28:31;7.30;;;4.60;;
75340;SDS011;64931;47.562;18.920;2022-11-23T16:31:01;8.30;;;4.60;;
75340;SDS011;64931;47.562;18.920;2022-11-23T16:33:27;9.80;;;5.90;;
75340;SDS011;64931;47.562;18.920;2022-11-23T16:35:54;10.40;;;6.20;;
75340;SDS011;64931;47.562;18.920;2022-11-23T16:38:20;13.10;;;6.10;;
75340;SDS011;64931;47.562;18.920;2022-11-23T16:40:46;10.00;;;5.50;;
75340;SDS011;64931;47.562;18.920;2022-11-23T16:43:13;10.90;;;5.80;;
75340;SDS011;64931;47.562;18.920;2022-11-23T16:45:45;10.90;;;6.90;;
75340;SDS011;64931;47.562;18.920;2022-11-23T16:50:59;11.80;;;5.80;;
75340;SDS011;64931;47.562;18.920;2022-11-23T16:53:25;9.50;;;5.80;;
75340;SDS011;64931;47.562;18.920;2022-11-23T16:55:59;12.20;;;7.20;;
75340;SDS011;64931;47.562;18.920;2022-11-23T16:58:29;13.10;;;8.00;;
75340;SDS011;64931;47.562;18.920;2022-11-23T17:00:56;16.00;;;10.20;;
75340;SDS011;64931;47.562;18.920;2022-11-23T17:03:22;17.00;;;10.30;;
75340;SDS011;64931;47.562;18.920;2022-11-23T17:05:48;16.80;;;10.40;;
75340;SDS011;64931;47.562;18.920;2022-11-23T17:08:16;16.10;;;10.80;;
75340;SDS011;64931;47.562;18.920;2022-11-23T17:10:49;15.20;;;9.70;;
75340;SDS011;64931;47.562;18.920;2022-11-23T17:13:38;15.80;;;10.40;;
75340;SDS011;64931;47.562;18.920;2022-11-23T17:16:09;15.00;;;10.00;;
75340;SDS011;64931;47.562;18.920;2022-11-23T17:18:49;12.30;;;8.10;;
75340;SDS011;64931;47.562;18.920;2022-11-23T17:21:15;14.10;;;9.60;;
75340;SDS011;64931;47.562;18.920;2022-11-23T17:23:43;15.60;;;10.00;;
75340;SDS011;64931;47.562;18.920;2022-11-23T17:26:33;16.70;;;11.30;;
75340;SDS011;64931;47.562;18.920;2022-11-23T17:29:19;27.50;;;18.80;;
75340;SDS011;64931;47.562;18.920;2022-11-23T17:32:06;34.10;;;25.60;;
75340;SDS011;64931;47.562;18.920;2022-11-23T17:34:38;17.00;;;12.00;;
75340;SDS011;64931;47.562;18.920;2022-11-23T17:37:14;13.50;;;9.60;;
75340;SDS011;64931;47.562;18.920;2022-11-23T17:40:10;13.40;;;8.80;;
75340;SDS011;64931;47.562;18.920;2022-11-23T17:43:10;30.20;;;19.70;;
75340;SDS011;64931;47.562;18.920;2022-11-23T17:45:37;15.60;;;10.10;;
75340;SDS011;64931;47.562;18.920;2022-11-23T17:48:03;32.10;;;18.40;;
75340;SDS011;64931;47.562;18.920;2022-11-23T17:50:49;55.40;;;30.50;;
75340;SDS011;64931;47.562;18.920;2022-11-23T17:53:20;20.40;;;12.70;;
75340;SDS011;64931;47.562;18.920;2022-11-23T17:56:08;22.00;;;13.30;;
75340;SDS011;64931;47.562;18.920;2022-11-23T17:58:49;30.80;;;14.10;;
75340;SDS011;64931;47.562;18.920;2022-11-23T18:02:02;26.50;;;13.20;;
75340;SDS011;64931;47.562;18.920;2022-11-23T18:04:44;21.50;;;12.80;;
75340;SDS011;64931;47.562;18.920;2022-11-23T18:07:13;21.80;;;12.70;;
75340;SDS011;64931;47.562;18.920;2022-11-23T18:10:06;20.50;;;12.70;;
75340;SDS011;64931;47.562;18.920;2022-11-23T18:12:47;21.00;;;13.50;;
75340;SDS011;64931;47.562;18.920;2022-11-23T18:15:58;21.20;;;11.70;;
75340;SDS011;64931;47.562;18.920;2022-11-23T18:21:55;41.10;;;18.10;;
75340;SDS011;64931;47.562;18.920;2022-11-23T18:24:57;51.90;;;25.50;;
75340;SDS011;64931;47.562;18.920;2022-11-23T18:27:24;21.90;;;12.80;;
75340;SDS011;64931;47.562;18.920;2022-11-23T18:29:56;25.00;;;15.40;;
75340;SDS011;64931;47.562;18.920;2022-11-23T18:32:42;27.60;;;17.30;;
75340;SDS011;64931;47.562;18.920;2022-11-23T18:35:22;32.30;;;20.70;;
75340;SDS011;64931;47.562;18.920;2022-11-23T18:37:55;26.70;;;16.50;;
75340;SDS011;64931;47.562;18.920;2022-11-23T18:40:20;22.30;;;14.10;;
75340;SDS011;64931;47.562;18.920;2022-11-23T18:42:48;16.10;;;10.60;;
75340;SDS011;64931;47.562;18.920;2022-11-23T18:45:16;15.20;;;9.00;;
75340;SDS011;64931;47.562;18.920;2022-11-23T18:47:44;12.50;;;7.70;;
75340;SDS011;64931;47.562;18.920;2022-11-23T18:50:12;13.40;;;8.10;;
75340;SDS011;64931;47.562;18.920;2022-11-23T18:52:40;13.00;;;7.50;;
75340;SDS011;64931;47.562;18.920;2022-11-23T18:55:08;12.00;;;7.70;;
75340;SDS011;64931;47.562;18.920;2022-11-23T18:57:33;11.60;;;7.10;;
75340;SDS011;64931;47.562;18.920;2022-11-23T18:59:59;17.20;;;9.50;;
75340;SDS011;64931;47.562;18.920;2022-11-23T19:02:42;13.60;;;9.40;;
75340;SDS011;64931;47.562;18.920;2022-11-23T19:05:10;14.80;;;9.60;;
75340;SDS011;64931;47.562;18.920;2022-11-23T19:07:40;14.40;;;8.50;;
75340;SDS011;64931;47.562;18.920;2022-11-23T19:10:16;13.50;;;8.70;;
75340;SDS011;64931;47.562;18.920;2022-11-23T19:12:45;26.00;;;18.00;;
75340;SDS011;64931;47.562;18.920;2022-11-23T19:15:10;21.90;;;15.30;;
75340;SDS011;64931;47.562;18.920;2022-11-23T19:17:38;13.40;;;9.20;;
75340;SDS011;64931;47.562;18.920;2022-11-23T19:20:07;11.80;;;7.60;;
75340;SDS011;64931;47.562;18.920;2022-11-23T19:22:34;12.30;;;7.40;;
75340;SDS011;64931;47.562;18.920;2022-11-23T19:25:00;10.60;;;6.60;;
75340;SDS011;64931;47.562;18.920;2022-11-23T19:27:27;11.00;;;7.00;;
75340;SDS011;64931;47.562;18.920;2022-11-23T19:29:53;9.70;;;6.20;;
75340;SDS011;64931;47.562;18.920;2022-11-23T19:32:21;11.50;;;7.00;;
75340;SDS011;64931;47.562;18.920;2022-11-23T19:34:46;10.80;;;6.30;;
75340;SDS011;64931;47.562;18.920;2022-11-23T19:37:12;12.60;;;7.70;;
75340;SDS011;64931;47.562;18.920;2022-11-23T19:39:38;15.20;;;9.00;;
75340;SDS011;64931;47.562;18.920;2022-11-23T19:42:18;15.10;;;9.60;;